< < Back
Terminal Aerodrome Forecast


Current Version              Previous Versions:   1  2  3  4  5  6  7  8  9  

Terminal Aerodrome Forecast

839
FTUS42 KFFC 041144 AAA
TAFFTY
TAF AMD
KFTY 041144Z 0412/0512 30003KT P6SM SKC
     FM041400 31010G18KT P6SM SCT045
     FM042000 29011G20KT P6SM SCT070
     FM050000 30008KT P6SM BKN060 BKN250
     FM050300 30012KT P6SM BKN060 BKN250
     FM050900 30013G21KT P6SM SCT060=



Latest METAR

964
SAUS70 KWBC 041700 RRF
MTRFTY
METAR KFTY 041653Z 32011G19KT 10SM FEW055 19/06 A2982 RMK AO2 SLP090
T01940061


USA.gov is the U.S. government's official web portal to all federal, state and local government web resources and services.